Time,TemperatureF,DewpointF,PressureIn,WindDirection,WindDirectionDegrees,WindSpeedMPH,WindSpeedGustMPH,Humidity,HourlyPrecipIn,Conditions,Clouds,dailyrainin,SoftwareType,DateUTC
2013-03-03 00:02:00,2.0,-1.0,30.14,West,260,0.0,0.0,87,0.00,,,0.00,,2013-03-03 06:02:00,
2013-03-03 00:11:00,2.0,-1.0,30.14,West,260,0.0,0.0,87,0.00,,,0.00,,2013-03-03 06:11:00,
2013-03-03 00:21:00,4.0,2.0,30.14,West,260,0.0,0.0,89,0.00,,,0.00,,2013-03-03 06:21:00,
2013-03-03 00:31:00,5.0,2.0,30.14,West,261,1.0,2.0,89,0.00,,,0.00,,2013-03-03 06:31:00,
2013-03-03 00:42:00,5.0,2.0,30.14,West,261,1.0,2.0,89,0.00,,,0.00,,2013-03-03 06:42:00,
2013-03-03 00:52:00,6.0,3.0,30.14,NNW,342,1.0,3.0,89,0.00,,,0.00,,2013-03-03 06:52:00,
2013-03-03 01:01:00,5.0,2.0,30.13,NNW,342,0.0,1.0,87,0.00,,,0.00,,2013-03-03 07:01:00,
2013-03-03 01:11:00,5.0,2.0,30.13,NNW,342,0.0,1.0,87,0.00,,,0.00,,2013-03-03 07:11:00,
2013-03-03 01:21:00,5.0,2.0,30.13,NNW,342,0.0,0.0,88,0.00,,,0.00,,2013-03-03 07:21:00,
2013-03-03 01:31:00,6.0,3.0,30.14,NNW,342,0.0,0.0,89,0.00,,,0.00,,2013-03-03 07:31:00,
2013-03-03 01:42:00,6.0,3.0,30.14,NNW,342,0.0,0.0,89,0.00,,,0.00,,2013-03-03 07:42:00,
2013-03-03 01:52:00,7.0,4.0,30.13,NNW,343,0.0,1.0,88,0.00,,,0.00,,2013-03-03 07:52:00,
2013-03-03 02:01:00,8.0,5.0,30.12,NNW,343,0.0,0.0,89,0.00,,,0.00,,2013-03-03 08:01:00,
2013-03-03 02:11:00,8.0,5.0,30.12,NNW,343,0.0,0.0,89,0.00,,,0.00,,2013-03-03 08:11:00,
2013-03-03 02:21:00,9.0,6.0,30.11,NE,42,0.0,2.0,89,0.00,,,0.00,,2013-03-03 08:21:00,
2013-03-03 02:31:00,9.0,6.0,30.11,NE,44,1.0,2.0,89,0.00,,,0.00,,2013-03-03 08:31:00,
2013-03-03 02:41:00,9.0,6.0,30.11,NE,44,1.0,2.0,89,0.00,,,0.00,,2013-03-03 08:41:00,
2013-03-03 02:54:00,9.0,6.0,30.11,NE,44,0.0,1.0,88,0.00,,,0.00,,2013-03-03 08:54:00,
2013-03-03 03:01:00,8.0,5.0,30.10,NE,44,0.0,0.0,88,0.00,,,0.00,,2013-03-03 09:01:00,
2013-03-03 03:11:00,8.0,5.0,30.10,NE,44,0.0,0.0,88,0.00,,,0.00,,2013-03-03 09:11:00,
2013-03-03 03:21:00,6.0,3.0,30.10,ENE,58,0.0,1.0,86,0.00,,,0.00,,2013-03-03 09:21:00,
2013-03-03 03:32:00,5.0,2.0,30.10,ENE,58,0.0,0.0,87,0.00,,,0.00,,2013-03-03 09:32:00,
2013-03-03 03:41:00,5.0,2.0,30.10,ENE,58,0.0,0.0,87,0.00,,,0.00,,2013-03-03 09:41:00,
2013-03-03 03:52:00,6.0,3.0,30.10,ENE,58,0.0,0.0,88,0.00,,,0.00,,2013-03-03 09:52:00,
2013-03-03 04:01:00,5.0,2.0,30.10,ENE,58,0.0,0.0,87,0.00,,,0.00,,2013-03-03 10:01:00,
2013-03-03 04:11:00,5.0,2.0,30.10,ENE,58,0.0,0.0,87,0.00,,,0.00,,2013-03-03 10:11:00,
2013-03-03 04:21:00,5.0,2.0,30.09,ENE,58,0.0,0.0,88,0.00,,,0.00,,2013-03-03 10:21:00,
2013-03-03 04:32:00,6.0,3.0,30.09,ENE,59,0.0,1.0,89,0.00,,,0.00,,2013-03-03 10:32:00,
2013-03-03 04:42:00,6.0,3.0,30.09,ENE,59,0.0,1.0,89,0.00,,,0.00,,2013-03-03 10:42:00,
2013-03-03 04:52:00,7.0,4.0,30.09,ENE,59,0.0,0.0,89,0.00,,,0.00,,2013-03-03 10:52:00,
2013-03-03 05:01:00,8.0,5.0,30.10,ENE,59,0.0,1.0,89,0.00,,,0.00,,2013-03-03 11:01:00,
2013-03-03 05:11:00,8.0,5.0,30.10,ENE,59,0.0,1.0,89,0.00,,,0.00,,2013-03-03 11:11:00,
2013-03-03 05:21:00,4.0,1.0,30.10,ENE,59,0.0,1.0,86,0.00,,,0.00,,2013-03-03 11:21:00,
2013-03-03 05:32:00,4.0,1.0,30.10,ENE,59,0.0,1.0,86,0.00,,,0.00,,2013-03-03 11:32:00,
2013-03-03 05:42:00,4.0,1.0,30.10,ENE,59,0.0,1.0,86,0.00,,,0.00,,2013-03-03 11:42:00,
2013-03-03 05:52:00,3.0,0.0,30.10,ENE,59,0.0,0.0,87,0.00,,,0.00,,2013-03-03 11:52:00,
2013-03-03 06:01:00,4.0,1.0,30.10,ENE,59,0.0,1.0,87,0.00,,,0.00,,2013-03-03 12:01:00,
2013-03-03 06:11:00,4.0,1.0,30.10,ENE,59,0.0,1.0,87,0.00,,,0.00,,2013-03-03 12:11:00,
2013-03-03 06:21:00,5.0,2.0,30.09,ENE,59,0.0,0.0,87,0.00,,,0.00,,2013-03-03 12:21:00,
2013-03-03 06:32:00,4.0,1.0,30.10,ENE,59,0.0,0.0,88,0.00,,,0.00,,2013-03-03 12:32:00,
2013-03-03 06:42:00,4.0,1.0,30.10,ENE,59,0.0,0.0,88,0.00,,,0.00,,2013-03-03 12:42:00,
2013-03-03 06:53:00,5.0,2.0,30.09,ENE,59,0.0,0.0,87,0.00,,,0.00,,2013-03-03 12:53:00,
2013-03-03 07:01:00,4.0,1.0,30.09,ENE,59,0.0,0.0,87,0.00,,,0.00,,2013-03-03 13:01:00,
2013-03-03 07:11:00,4.0,1.0,30.09,ENE,59,0.0,0.0,87,0.00,,,0.00,,2013-03-03 13:11:00,
2013-03-03 07:21:00,4.0,1.0,30.09,ENE,59,0.0,0.0,88,0.00,,,0.00,,2013-03-03 13:21:00,
2013-03-03 07:32:00,6.0,3.0,30.10,ENE,59,0.0,1.0,89,0.00,,,0.00,,2013-03-03 13:32:00,
2013-03-03 07:42:00,6.0,3.0,30.10,ENE,59,0.0,1.0,89,0.00,,,0.00,,2013-03-03 13:42:00,
2013-03-03 07:52:00,6.0,3.0,30.09,ENE,59,0.0,0.0,87,0.00,,,0.00,,2013-03-03 13:52:00,
2013-03-03 08:02:00,6.0,3.0,30.09,SSE,150,0.0,2.0,89,0.00,,,0.00,,2013-03-03 14:02:00,
2013-03-03 08:11:00,6.0,3.0,30.09,SSE,150,0.0,2.0,89,0.00,,,0.00,,2013-03-03 14:11:00,
2013-03-03 08:21:00,7.0,4.0,30.10,ESE,109,0.0,2.0,89,0.00,,,0.00,,2013-03-03 14:21:00,
2013-03-03 08:32:00,10.0,7.0,30.10,ENE,61,1.0,4.0,89,0.00,,,0.00,,2013-03-03 14:32:00,
2013-03-03 08:42:00,10.0,7.0,30.10,ENE,61,1.0,4.0,89,0.00,,,0.00,,2013-03-03 14:42:00,
2013-03-03 08:52:00,11.0,9.0,30.09,SE,127,1.0,2.0,90,0.00,,,0.00,,2013-03-03 14:52:00,
2013-03-03 09:01:00,12.0,10.0,30.09,East,94,1.0,3.0,90,0.00,,,0.00,,2013-03-03 15:01:00,
2013-03-03 09:11:00,12.0,10.0,30.09,East,94,1.0,3.0,90,0.00,,,0.00,,2013-03-03 15:11:00,
2013-03-03 09:22:00,13.0,10.0,30.09,East,88,2.0,5.0,89,0.00,,,0.00,,2013-03-03 15:22:00,
2013-03-03 09:32:00,16.0,13.0,30.08,ESE,109,2.0,4.0,89,0.00,,,0.00,,2013-03-03 15:32:00,
2013-03-03 09:42:00,16.0,13.0,30.08,ESE,109,2.0,4.0,89,0.00,,,0.00,,2013-03-03 15:42:00,
2013-03-03 09:52:00,18.0,15.0,30.08,ESE,115,2.0,7.0,86,0.00,,,0.00,,2013-03-03 15:52:00,
2013-03-03 10:01:00,19.0,14.0,30.08,ESE,121,4.0,7.0,82,0.00,,,0.00,,2013-03-03 16:01:00,
2013-03-03 10:12:00,19.0,14.0,30.08,ESE,121,4.0,7.0,82,0.00,,,0.00,,2013-03-03 16:12:00,
2013-03-03 10:21:00,21.0,16.0,30.08,East,97,4.0,7.0,80,0.00,,,0.00,,2013-03-03 16:21:00,
2013-03-03 10:31:00,22.0,16.0,30.08,SE,135,3.0,5.0,78,0.00,,,0.00,,2013-03-03 16:31:00,
2013-03-03 10:42:00,22.0,16.0,30.08,SE,135,3.0,5.0,78,0.00,,,0.00,,2013-03-03 16:42:00,
2013-03-03 10:52:00,24.0,18.0,30.08,East,98,2.0,6.0,77,0.00,,,0.00,,2013-03-03 16:52:00,
2013-03-03 11:01:00,24.0,18.0,30.08,ESE,120,3.0,6.0,78,0.00,,,0.00,,2013-03-03 17:01:00,
2013-03-03 11:11:00,26.0,19.0,30.07,SE,137,3.0,7.0,75,0.00,,,0.00,,2013-03-03 17:11:00,
2013-03-03 11:22:00,26.0,19.0,30.07,SE,137,3.0,7.0,75,0.00,,,0.00,,2013-03-03 17:22:00,
2013-03-03 11:32:00,28.0,21.0,30.07,SSE,153,3.0,7.0,76,0.00,,,0.00,,2013-03-03 17:32:00,
2013-03-03 11:42:00,28.0,21.0,30.07,SSE,153,3.0,7.0,76,0.00,,,0.00,,2013-03-03 17:42:00,
2013-03-03 11:52:00,27.0,20.0,30.07,SE,133,6.0,8.0,74,0.00,,,0.00,,2013-03-03 17:52:00,
2013-03-03 12:01:00,28.0,20.0,30.07,SE,131,5.0,8.0,72,0.00,,,0.00,,2013-03-03 18:01:00,
2013-03-03 12:11:00,28.0,20.0,30.07,SE,131,5.0,8.0,72,0.00,,,0.00,,2013-03-03 18:11:00,
2013-03-03 12:21:00,28.0,20.0,30.06,ESE,104,7.0,10.0,71,0.00,,,0.00,,2013-03-03 18:21:00,
2013-03-03 12:32:00,29.0,21.0,30.06,SE,143,6.0,9.0,71,0.00,,,0.00,,2013-03-03 18:32:00,
2013-03-03 12:42:00,29.0,21.0,30.06,SE,143,6.0,9.0,71,0.00,,,0.00,,2013-03-03 18:42:00,
2013-03-03 12:52:00,29.0,21.0,30.04,SE,132,6.0,9.0,71,0.01,,,0.01,,2013-03-03 18:52:00,
2013-03-03 13:01:00,29.0,21.0,30.04,ESE,109,5.0,9.0,72,0.01,,,0.01,,2013-03-03 19:01:00,
2013-03-03 13:11:00,29.0,21.0,30.04,ESE,109,5.0,9.0,72,0.01,,,0.01,,2013-03-03 19:11:00,
2013-03-03 13:21:00,31.0,23.0,30.03,East,101,4.0,9.0,71,0.01,,,0.01,,2013-03-03 19:21:00,
2013-03-03 13:32:00,31.0,22.0,30.02,ESE,111,6.0,10.0,68,0.01,,,0.01,,2013-03-03 19:32:00,
2013-03-03 13:42:00,31.0,22.0,30.02,ESE,111,6.0,10.0,68,0.01,,,0.01,,2013-03-03 19:42:00,
2013-03-03 13:52:00,31.0,21.0,30.01,East,92,6.0,8.0,67,0.00,,,0.01,,2013-03-03 19:52:00,
2013-03-03 14:01:00,32.0,22.0,30.01,ESE,110,7.0,9.0,65,0.00,,,0.01,,2013-03-03 20:01:00,
2013-03-03 14:11:00,32.0,22.0,30.01,ESE,110,7.0,9.0,65,0.00,,,0.01,,2013-03-03 20:11:00,
2013-03-03 14:21:00,32.0,20.0,30.00,ESE,103,8.0,11.0,62,0.00,,,0.01,,2013-03-03 20:21:00,
2013-03-03 14:32:00,32.0,21.0,30.00,ESE,113,7.0,11.0,63,0.00,,,0.01,,2013-03-03 20:32:00,
2013-03-03 14:42:00,32.0,21.0,30.00,ESE,113,7.0,11.0,63,0.00,,,0.01,,2013-03-03 20:42:00,
2013-03-03 14:53:00,33.0,22.0,30.00,ESE,123,5.0,9.0,64,0.00,,,0.01,,2013-03-03 20:53:00,
2013-03-03 15:01:00,33.0,23.0,29.99,SE,130,5.0,8.0,65,0.00,,,0.01,,2013-03-03 21:01:00,
2013-03-03 15:11:00,33.0,23.0,29.99,SE,130,5.0,8.0,65,0.00,,,0.01,,2013-03-03 21:11:00,
2013-03-03 15:22:00,32.0,22.0,29.99,SE,132,7.0,9.0,67,0.00,,,0.01,,2013-03-03 21:22:00,
2013-03-03 15:32:00,33.0,23.0,29.98,East,101,4.0,10.0,65,0.00,,,0.01,,2013-03-03 21:32:00,
2013-03-03 15:42:00,33.0,23.0,29.98,East,101,4.0,10.0,65,0.00,,,0.01,,2013-03-03 21:42:00,
2013-03-03 15:52:00,33.0,23.0,29.98,ESE,102,5.0,8.0,65,0.01,,,0.02,,2013-03-03 21:52:00,
2013-03-03 16:01:00,32.0,20.0,29.98,ESE,121,7.0,10.0,62,0.01,,,0.02,,2013-03-03 22:01:00,
2013-03-03 16:11:00,32.0,20.0,29.98,ESE,121,7.0,10.0,62,0.01,,,0.02,,2013-03-03 22:11:00,
2013-03-03 16:22:00,31.0,20.0,29.97,ESE,112,5.0,9.0,64,0.01,,,0.02,,2013-03-03 22:22:00,
2013-03-03 16:32:00,31.0,20.0,29.97,SE,126,6.0,8.0,64,0.01,,,0.02,,2013-03-03 22:32:00,
2013-03-03 16:42:00,31.0,20.0,29.97,SE,126,6.0,8.0,64,0.01,,,0.02,,2013-03-03 22:42:00,
2013-03-03 16:52:00,30.0,20.0,29.97,SE,131,5.0,8.0,65,0.00,,,0.02,,2013-03-03 22:52:00,
2013-03-03 17:01:00,30.0,19.0,29.97,ESE,113,5.0,8.0,62,0.00,,,0.02,,2013-03-03 23:01:00,
2013-03-03 17:11:00,30.0,19.0,29.97,ESE,113,5.0,8.0,62,0.00,,,0.02,,2013-03-03 23:11:00,
2013-03-03 17:21:00,30.0,17.0,29.97,SE,140,6.0,9.0,57,0.00,,,0.02,,2013-03-03 23:21:00,
2013-03-03 17:31:00,29.0,17.0,29.98,ENE,71,3.0,7.0,61,0.00,,,0.02,,2013-03-03 23:31:00,
2013-03-03 17:42:00,29.0,17.0,29.98,ENE,71,3.0,7.0,61,0.00,,,0.02,,2013-03-03 23:42:00,
2013-03-03 17:52:00,29.0,16.0,29.97,ESE,104,6.0,8.0,58,0.00,,,0.02,,2013-03-03 23:52:00,
2013-03-03 18:01:00,28.0,18.0,29.97,East,90,4.0,8.0,65,0.00,,,0.02,,2013-03-04 00:01:00,
2013-03-03 18:11:00,28.0,18.0,29.97,East,90,4.0,8.0,65,0.00,,,0.02,,2013-03-04 00:11:00,
2013-03-03 18:21:00,28.0,19.0,29.98,East,90,4.0,6.0,69,0.00,,,0.02,,2013-03-04 00:21:00,
2013-03-03 18:32:00,27.0,19.0,29.97,ENE,78,4.0,6.0,71,0.00,,,0.02,,2013-03-04 00:32:00,
2013-03-03 18:42:00,27.0,19.0,29.97,ENE,78,4.0,6.0,71,0.00,,,0.02,,2013-03-04 00:42:00,
2013-03-03 18:52:00,27.0,19.0,29.97,ENE,75,5.0,7.0,71,0.00,,,0.02,,2013-03-04 00:52:00,
2013-03-03 19:01:00,26.0,18.0,29.97,ESE,103,5.0,9.0,71,0.00,,,0.02,,2013-03-04 01:01:00,
2013-03-03 19:11:00,26.0,18.0,29.97,ESE,103,5.0,9.0,71,0.00,,,0.02,,2013-03-04 01:11:00,
2013-03-03 19:21:00,26.0,18.0,29.97,East,90,4.0,7.0,72,0.00,,,0.02,,2013-03-04 01:21:00,
2013-03-03 19:32:00,26.0,18.0,29.96,East,86,4.0,7.0,72,0.00,,,0.02,,2013-03-04 01:32:00,
2013-03-03 19:42:00,26.0,18.0,29.96,East,86,4.0,7.0,72,0.00,,,0.02,,2013-03-04 01:42:00,
2013-03-03 19:52:00,26.0,19.0,29.96,East,101,5.0,8.0,73,0.00,,,0.02,,2013-03-04 01:52:00,
2013-03-03 20:01:00,26.0,19.0,29.96,East,89,7.0,10.0,74,0.00,,,0.02,,2013-03-04 02:01:00,
2013-03-03 20:11:00,26.0,19.0,29.96,East,89,7.0,10.0,74,0.00,,,0.02,,2013-03-04 02:11:00,
2013-03-03 20:22:00,26.0,19.0,29.96,East,88,8.0,11.0,74,0.00,,,0.02,,2013-03-04 02:22:00,
2013-03-03 20:32:00,26.0,19.0,29.96,East,96,8.0,13.0,73,0.00,,,0.02,,2013-03-04 02:32:00,
2013-03-03 20:42:00,26.0,19.0,29.96,East,96,8.0,13.0,73,0.00,,,0.02,,2013-03-04 02:42:00,
2013-03-03 20:52:00,27.0,20.0,29.97,East,83,8.0,13.0,73,0.00,,,0.02,,2013-03-04 02:52:00,
2013-03-03 21:01:00,27.0,19.0,29.97,East,80,8.0,13.0,72,0.00,,,0.02,,2013-03-04 03:01:00,
2013-03-03 21:11:00,27.0,19.0,29.97,East,80,8.0,13.0,72,0.00,,,0.02,,2013-03-04 03:11:00,
2013-03-03 21:21:00,27.0,19.0,29.97,ESE,114,6.0,13.0,71,0.00,,,0.02,,2013-03-04 03:21:00,
2013-03-03 21:32:00,27.0,18.0,29.97,ESE,108,8.0,12.0,68,0.00,,,0.02,,2013-03-04 03:32:00,
2013-03-03 21:42:00,27.0,18.0,29.96,East,101,9.0,12.0,68,0.00,,,0.02,,2013-03-04 03:42:00,
2013-03-03 21:52:00,27.0,18.0,29.96,East,101,9.0,12.0,68,0.00,,,0.02,,2013-03-04 03:52:00,
2013-03-03 22:01:00,27.0,19.0,29.96,East,88,8.0,11.0,70,0.00,,,0.02,,2013-03-04 04:01:00,
2013-03-03 22:11:00,27.0,19.0,29.96,East,88,8.0,11.0,70,0.00,,,0.02,,2013-03-04 04:11:00,
2013-03-03 22:22:00,27.0,19.0,29.96,East,98,6.0,10.0,70,0.00,,,0.02,,2013-03-04 04:22:00,
2013-03-03 22:32:00,27.0,18.0,29.96,ESE,121,5.0,10.0,69,0.00,,,0.02,,2013-03-04 04:32:00,
2013-03-03 22:42:00,27.0,18.0,29.96,ESE,121,5.0,10.0,69,0.00,,,0.02,,2013-03-04 04:42:00,
2013-03-03 22:52:00,27.0,19.0,29.95,East,96,6.0,10.0,71,0.00,,,0.02,,2013-03-04 04:52:00,
2013-03-03 23:01:00,27.0,20.0,29.95,ESE,109,5.0,10.0,73,0.00,,,0.02,,2013-03-04 05:01:00,
2013-03-03 23:11:00,27.0,20.0,29.95,ESE,109,5.0,10.0,73,0.00,,,0.02,,2013-03-04 05:11:00,
2013-03-03 23:22:00,27.0,20.0,29.96,East,92,7.0,12.0,73,0.00,,,0.02,,2013-03-04 05:22:00,
2013-03-03 23:31:00,27.0,20.0,29.96,ESE,105,6.0,11.0,74,0.00,,,0.02,,2013-03-04 05:31:00,
2013-03-03 23:42:00,27.0,20.0,29.98,ESE,123,5.0,9.0,75,0.00,,,0.02,,2013-03-04 05:42:00,
2013-03-03 23:52:00,27.0,20.0,29.98,ESE,123,5.0,9.0,75,0.00,,,0.02,,2013-03-04 05:52:00,